createdAt,value
2023-01-26T00:00:46.357Z,52.53
2023-01-26T00:01:48.334Z,54.46
2023-01-26T00:02:46.871Z,79.28
2023-01-26T00:03:47.067Z,55.11
2023-01-26T00:04:47.885Z,53.50
2023-01-26T00:05:47.248Z,72.99
2023-01-26T00:06:47.890Z,51.72
2023-01-26T00:07:48.381Z,77.34
2023-01-26T00:08:47.652Z,61.55
2023-01-26T00:09:47.818Z,79.28
2023-01-26T00:10:47.956Z,75.73
2023-01-26T00:11:48.133Z,81.69
2023-01-26T00:12:48.328Z,75.09
2023-01-26T00:13:50.350Z,78.31
2023-01-26T00:14:48.713Z,77.50
2023-01-26T00:15:48.917Z,51.88
2023-01-26T00:16:49.103Z,74.28
2023-01-26T00:17:49.285Z,53.82
2023-01-26T00:18:49.487Z,82.18
2023-01-26T00:19:49.635Z,82.02
2023-01-26T00:20:49.758Z,58.17
2023-01-26T00:21:50.926Z,79.28
2023-01-26T00:22:50.061Z,52.53
2023-01-26T00:23:50.257Z,52.21
2023-01-26T00:24:50.406Z,51.72
2023-01-26T00:25:50.582Z,52.53
2023-01-26T00:26:50.769Z,53.50
2023-01-26T00:27:50.950Z,80.57
2023-01-26T00:28:51.155Z,81.86
2023-01-26T00:29:51.335Z,82.02
2023-01-26T00:30:51.539Z,53.66
2023-01-26T00:31:51.748Z,81.37
2023-01-26T00:32:51.927Z,82.50
2023-01-26T00:33:52.147Z,51.88
2023-01-26T00:34:52.327Z,51.72
2023-01-26T00:35:52.488Z,51.40
2023-01-26T00:36:52.646Z,50.76
2023-01-26T00:37:53.341Z,79.92
2023-01-26T00:38:53.035Z,78.96
2023-01-26T00:39:53.198Z,59.78
2023-01-26T00:40:54.845Z,52.37
2023-01-26T00:41:53.602Z,52.05
2023-01-26T00:42:55.349Z,53.33
2023-01-26T00:43:53.993Z,82.18
2023-01-26T00:44:54.159Z,61.71
2023-01-26T00:45:54.357Z,80.57
2023-01-26T00:46:54.597Z,53.66
2023-01-26T00:47:54.705Z,54.30
2023-01-26T00:48:55.844Z,81.86
2023-01-26T00:49:55.709Z,53.98
2023-01-26T00:50:56.842Z,52.05
2023-01-26T00:51:55.893Z,51.24
2023-01-26T00:52:57.348Z,52.85
2023-01-26T00:53:56.357Z,79.12
2023-01-26T00:54:56.398Z,74.60
2023-01-26T00:55:56.027Z,55.59
2023-01-26T00:56:56.708Z,64.29
2023-01-26T00:57:56.390Z,79.60
2023-01-26T00:58:56.543Z,55.43
2023-01-26T00:59:57.392Z,52.53
2023-01-26T01:00:57.042Z,77.34
2023-01-26T01:01:57.160Z,52.53
2023-01-26T01:02:57.855Z,53.33
2023-01-26T01:03:57.520Z,53.98
2023-01-26T01:04:57.714Z,53.82
2023-01-26T01:05:58.388Z,78.79
2023-01-26T01:06:58.901Z,60.42
2023-01-26T01:07:58.221Z,81.05
2023-01-26T01:08:58.382Z,77.50
2023-01-26T01:09:58.533Z,53.50
2023-01-26T01:10:59.393Z,52.21
2023-01-26T01:11:59.711Z,52.05
2023-01-26T01:12:59.851Z,82.34
2023-01-26T01:13:59.891Z,58.97
2023-01-26T01:14:59.448Z,51.88
2023-01-26T01:15:59.699Z,55.43
2023-01-26T01:17:00.903Z,58.49
2023-01-26T01:18:01.857Z,52.69
2023-01-26T01:19:00.894Z,54.30
2023-01-26T01:20:00.868Z,53.98
2023-01-26T01:21:00.485Z,52.85
2023-01-26T01:22:00.672Z,52.05
2023-01-26T01:23:00.868Z,52.53
2023-01-26T01:24:01.054Z,51.24
2023-01-26T01:25:01.315Z,54.95
2023-01-26T01:26:02.361Z,52.21
2023-01-26T01:27:03.356Z,52.37
2023-01-26T01:28:01.905Z,56.72
2023-01-26T01:29:02.105Z,76.05
2023-01-26T01:30:03.866Z,62.52
2023-01-26T01:31:02.621Z,53.66
2023-01-26T01:32:02.805Z,51.88
2023-01-26T01:33:02.926Z,53.01
2023-01-26T01:34:03.719Z,52.53
2023-01-26T01:35:03.910Z,53.17
2023-01-26T01:36:04.394Z,52.53
2023-01-26T01:37:05.361Z,53.17
2023-01-26T01:38:03.771Z,52.05
2023-01-26T01:39:03.946Z,52.53
2023-01-26T01:40:04.124Z,53.01
2023-01-26T01:41:04.901Z,53.66
2023-01-26T01:42:04.430Z,67.51
2023-01-26T01:43:06.360Z,77.67
2023-01-26T01:44:05.359Z,55.75
2023-01-26T01:45:05.400Z,51.72
2023-01-26T01:46:05.875Z,53.82
2023-01-26T01:47:05.896Z,81.21
2023-01-26T01:48:06.219Z,54.62
2023-01-26T01:49:05.622Z,53.17
2023-01-26T01:50:05.796Z,53.50
2023-01-26T01:51:06.900Z,52.85
2023-01-26T01:52:06.864Z,79.60
2023-01-26T01:53:06.395Z,54.30
2023-01-26T01:54:06.555Z,63.49
2023-01-26T01:55:07.894Z,72.83
2023-01-26T01:56:06.935Z,54.14
2023-01-26T01:57:07.906Z,55.43
2023-01-26T01:58:07.309Z,52.69
2023-01-26T01:59:07.444Z,52.05
2023-01-26T02:00:07.672Z,51.88
2023-01-26T02:01:08.462Z,51.56
2023-01-26T02:02:08.126Z,71.87
2023-01-26T02:03:08.310Z,51.88
2023-01-26T02:04:08.506Z,52.37
2023-01-26T02:05:09.385Z,56.40
2023-01-26T02:06:10.869Z,79.44
2023-01-26T02:07:09.131Z,52.69
2023-01-26T02:08:09.320Z,51.88
2023-01-26T02:09:10.422Z,52.05
2023-01-26T02:10:10.034Z,77.99
2023-01-26T02:11:09.937Z,53.50
2023-01-26T02:12:09.978Z,82.66
2023-01-26T02:13:10.904Z,52.05
2023-01-26T02:14:10.409Z,62.68
2023-01-26T02:15:11.407Z,80.57
2023-01-26T02:16:10.590Z,76.05
2023-01-26T02:17:10.915Z,54.14
2023-01-26T02:18:12.722Z,55.59
2023-01-26T02:19:11.900Z,53.66
2023-01-26T02:20:13.171Z,51.88
2023-01-26T02:21:12.365Z,53.66
2023-01-26T02:22:11.933Z,79.60
2023-01-26T02:23:12.399Z,58.01
2023-01-26T02:24:12.088Z,52.69
2023-01-26T02:25:12.220Z,53.33
2023-01-26T02:26:13.865Z,80.08
2023-01-26T02:27:12.668Z,52.69
2023-01-26T02:28:12.825Z,77.83
2023-01-26T02:29:13.027Z,75.25
2023-01-26T02:30:15.375Z,72.67
2023-01-26T02:31:14.482Z,56.56
2023-01-26T02:32:13.917Z,51.56
2023-01-26T02:33:13.778Z,51.56
2023-01-26T02:34:14.873Z,53.01
2023-01-26T02:35:14.195Z,78.79
2023-01-26T02:36:14.392Z,52.37
2023-01-26T02:37:15.412Z,78.15
2023-01-26T02:38:14.739Z,52.05
2023-01-26T02:39:14.953Z,51.56
2023-01-26T02:40:15.186Z,78.31
2023-01-26T02:41:15.404Z,54.30
2023-01-26T02:42:15.598Z,51.72
2023-01-26T02:43:15.786Z,51.56
2023-01-26T02:44:16.003Z,81.21
2023-01-26T02:45:16.202Z,79.76
2023-01-26T02:46:17.407Z,62.36
2023-01-26T02:47:16.578Z,52.05
2023-01-26T02:48:17.408Z,80.08
2023-01-26T02:49:17.867Z,74.93
2023-01-26T02:50:17.156Z,64.61
2023-01-26T02:51:17.869Z,52.05
2023-01-26T02:52:19.733Z,77.99
2023-01-26T02:53:17.738Z,53.66
2023-01-26T02:54:17.915Z,51.72
2023-01-26T02:55:18.071Z,52.69
2023-01-26T02:56:18.252Z,51.72
2023-01-26T02:57:18.409Z,51.72
2023-01-26T02:58:19.874Z,77.02
2023-01-26T02:59:19.414Z,56.07
2023-01-26T03:00:18.958Z,77.50
2023-01-26T03:01:19.885Z,76.54
2023-01-26T03:02:19.973Z,77.67
2023-01-26T03:03:20.406Z,73.48
2023-01-26T03:04:19.723Z,52.21
2023-01-26T03:05:19.871Z,53.50
2023-01-26T03:06:20.015Z,58.17
2023-01-26T03:07:20.198Z,51.56
2023-01-26T03:08:20.367Z,51.56
2023-01-26T03:09:21.407Z,79.12
2023-01-26T03:10:20.699Z,76.22
2023-01-26T03:11:20.853Z,53.01
2023-01-26T03:12:21.054Z,81.53
2023-01-26T03:13:21.228Z,70.90
2023-01-26T03:14:21.909Z,79.76
2023-01-26T03:15:21.593Z,79.92
2023-01-26T03:16:22.443Z,62.04
2023-01-26T03:17:21.979Z,51.24
2023-01-26T03:18:22.880Z,50.92
2023-01-26T03:19:23.414Z,51.24
2023-01-26T03:20:24.377Z,51.88
2023-01-26T03:21:22.764Z,51.40
2023-01-26T03:22:24.460Z,53.33
2023-01-26T03:23:24.419Z,56.40
2023-01-26T03:24:23.938Z,78.63
2023-01-26T03:25:23.520Z,78.63
2023-01-26T03:26:23.680Z,80.08
2023-01-26T03:27:23.815Z,78.31
2023-01-26T03:28:23.977Z,76.05
2023-01-26T03:29:24.175Z,80.41
2023-01-26T03:30:24.313Z,74.60
2023-01-26T03:31:24.479Z,69.45
2023-01-26T03:32:24.665Z,76.86
2023-01-26T03:33:24.840Z,84.11
2023-01-26T03:34:25.012Z,61.71
2023-01-26T03:35:25.174Z,76.22
2023-01-26T03:36:25.321Z,75.73
2023-01-26T03:37:25.513Z,77.02
2023-01-26T03:38:25.654Z,77.02
2023-01-26T03:39:26.409Z,82.18
2023-01-26T03:40:26.044Z,80.57
2023-01-26T03:41:26.202Z,65.26
2023-01-26T03:42:27.870Z,76.54
2023-01-26T03:43:26.598Z,74.77
2023-01-26T03:44:26.752Z,81.37
2023-01-26T03:45:28.370Z,76.54
2023-01-26T03:46:27.935Z,78.96
2023-01-26T03:47:27.869Z,57.85
2023-01-26T03:48:27.536Z,66.87
2023-01-26T03:49:27.736Z,80.73
2023-01-26T03:50:28.413Z,79.44
2023-01-26T03:51:28.881Z,77.34
2023-01-26T03:52:28.264Z,79.76
2023-01-26T03:53:29.371Z,79.44
2023-01-26T03:54:28.622Z,75.41
2023-01-26T03:55:28.774Z,75.25
2023-01-26T03:56:28.910Z,80.57
2023-01-26T03:57:30.747Z,74.93
2023-01-26T03:58:29.205Z,79.92
2023-01-26T03:59:29.360Z,80.73
2023-01-26T04:00:29.594Z,82.02
2023-01-26T04:01:30.375Z,79.60
2023-01-26T04:02:30.391Z,74.44
2023-01-26T04:03:30.037Z,80.89
2023-01-26T04:04:30.226Z,82.82
2023-01-26T04:05:30.406Z,81.37
2023-01-26T04:06:30.599Z,80.89
2023-01-26T04:07:30.765Z,77.34
2023-01-26T04:08:31.441Z,79.92
2023-01-26T04:09:31.084Z,79.92
2023-01-26T04:10:31.246Z,83.14
2023-01-26T04:11:31.434Z,80.08
2023-01-26T04:12:32.414Z,81.21
2023-01-26T04:13:31.800Z,80.08
2023-01-26T04:14:32.440Z,78.31
2023-01-26T04:15:33.176Z,82.82
2023-01-26T04:16:32.357Z,82.02
2023-01-26T04:17:34.375Z,81.21
2023-01-26T04:18:33.376Z,80.08
2023-01-26T04:19:32.792Z,79.28
2023-01-26T04:20:32.950Z,80.24
2023-01-26T04:21:33.147Z,81.53
2023-01-26T04:22:33.873Z,84.27
2023-01-26T04:23:33.525Z,83.14
2023-01-26T04:24:33.938Z,83.14
2023-01-26T04:25:33.867Z,82.02
2023-01-26T04:26:34.944Z,82.18
2023-01-26T04:27:34.202Z,80.24
2023-01-26T04:28:34.920Z,82.34
2023-01-26T04:29:34.576Z,83.47
2023-01-26T04:30:34.845Z,81.37
2023-01-26T04:31:35.445Z,81.37
2023-01-26T04:32:35.927Z,82.02
2023-01-26T04:33:35.965Z,80.89
2023-01-26T04:34:36.424Z,82.18
2023-01-26T04:35:35.936Z,81.53
2023-01-26T04:36:36.419Z,79.76
2023-01-26T04:37:36.928Z,82.66
2023-01-26T04:38:36.207Z,82.18
2023-01-26T04:39:36.401Z,82.66
2023-01-26T04:40:36.600Z,81.21
2023-01-26T04:41:36.781Z,81.86
2023-01-26T04:42:38.885Z,83.31
2023-01-26T04:43:37.931Z,80.89
2023-01-26T04:44:37.923Z,81.37
2023-01-26T04:45:37.468Z,83.63
2023-01-26T04:46:37.630Z,82.50
2023-01-26T04:47:37.805Z,82.34
2023-01-26T04:48:37.976Z,81.37
2023-01-26T04:49:38.931Z,81.05
2023-01-26T04:50:38.328Z,82.66
2023-01-26T04:51:39.387Z,81.37
2023-01-26T04:52:38.669Z,84.76
2023-01-26T04:53:39.431Z,82.50
2023-01-26T04:54:40.886Z,82.82
2023-01-26T04:55:41.397Z,82.98
2023-01-26T04:56:40.879Z,81.86
2023-01-26T04:57:39.517Z,81.37
2023-01-26T04:58:40.246Z,81.05
2023-01-26T04:59:39.879Z,83.79
2023-01-26T05:00:40.024Z,84.27
2023-01-26T05:01:41.387Z,80.89
2023-01-26T05:02:40.489Z,87.66
2023-01-26T05:03:40.643Z,86.04
2023-01-26T05:04:41.886Z,81.21
2023-01-26T05:05:41.443Z,86.37
2023-01-26T05:06:42.816Z,83.47
2023-01-26T05:07:42.261Z,85.08
2023-01-26T05:08:41.512Z,81.69
2023-01-26T05:09:42.383Z,82.66
2023-01-26T05:10:41.887Z,84.59
2023-01-26T05:11:42.917Z,78.15
2023-01-26T05:12:42.214Z,81.86
2023-01-26T05:13:42.819Z,79.60
2023-01-26T05:14:43.625Z,79.76
2023-01-26T05:15:42.790Z,83.14
2023-01-26T05:16:43.992Z,80.41
2023-01-26T05:17:43.440Z,83.31
2023-01-26T05:18:43.355Z,85.40
2023-01-26T05:19:43.535Z,83.47
2023-01-26T05:20:43.697Z,79.76
2023-01-26T05:21:43.963Z,82.82
2023-01-26T05:22:44.003Z,83.63
2023-01-26T05:23:44.227Z,81.53
2023-01-26T05:24:44.407Z,81.21
2023-01-26T05:25:45.391Z,82.34
2023-01-26T05:26:44.788Z,77.34
2023-01-26T05:27:45.885Z,83.31
2023-01-26T05:28:45.215Z,80.24
2023-01-26T05:29:45.440Z,82.50
2023-01-26T05:30:47.391Z,83.14
2023-01-26T05:31:45.850Z,78.15
2023-01-26T05:32:45.991Z,81.69
2023-01-26T05:33:46.200Z,83.31
2023-01-26T05:34:46.406Z,83.63
2023-01-26T05:35:46.606Z,81.86
2023-01-26T05:36:46.795Z,86.21
2023-01-26T05:37:46.979Z,84.92
2023-01-26T05:38:47.935Z,82.18
2023-01-26T05:39:47.345Z,83.14
2023-01-26T05:40:48.391Z,82.66
2023-01-26T05:41:48.255Z,81.53
2023-01-26T05:42:48.894Z,82.34
2023-01-26T05:43:48.935Z,80.89
2023-01-26T05:44:48.894Z,83.47
2023-01-26T05:45:49.437Z,82.02
2023-01-26T05:46:48.630Z,85.40
2023-01-26T05:47:48.823Z,82.50
2023-01-26T05:48:49.000Z,79.60
2023-01-26T05:49:50.899Z,82.34
2023-01-26T05:50:51.397Z,81.53
2023-01-26T05:51:49.647Z,80.57
2023-01-26T05:52:49.809Z,83.47
2023-01-26T05:53:49.988Z,87.17
2023-01-26T05:54:51.899Z,79.44
2023-01-26T05:55:51.394Z,82.34
2023-01-26T05:56:50.544Z,81.05
2023-01-26T05:57:51.892Z,87.17
2023-01-26T05:58:52.401Z,82.18
2023-01-26T05:59:51.063Z,83.31
2023-01-26T06:00:51.261Z,81.37
2023-01-26T06:01:51.473Z,82.98
2023-01-26T06:02:53.394Z,84.11
2023-01-26T06:03:51.894Z,82.66
2023-01-26T06:04:52.088Z,82.66
2023-01-26T06:05:52.285Z,81.86
2023-01-26T06:06:52.467Z,81.05
2023-01-26T06:07:53.397Z,82.18
2023-01-26T06:08:53.391Z,80.41
2023-01-26T06:09:53.893Z,81.53
2023-01-26T06:10:53.935Z,80.73
2023-01-26T06:11:53.346Z,84.76
2023-01-26T06:12:54.396Z,82.34
2023-01-26T06:13:54.395Z,82.50
2023-01-26T06:14:53.776Z,81.37
2023-01-26T06:15:53.924Z,81.21
2023-01-26T06:16:54.082Z,81.21
2023-01-26T06:17:54.272Z,84.92
2023-01-26T06:18:54.424Z,84.27
2023-01-26T06:19:54.585Z,78.96
2023-01-26T06:20:54.723Z,78.79
2023-01-26T06:21:54.864Z,85.24
2023-01-26T06:22:55.022Z,108.93
2023-01-26T06:23:55.487Z,86.53
2023-01-26T06:24:55.960Z,86.69
2023-01-26T06:25:56.437Z,84.43
2023-01-26T06:26:55.686Z,82.98
2023-01-26T06:27:55.815Z,80.89
2023-01-26T06:28:55.985Z,79.28
2023-01-26T06:29:56.127Z,81.69
2023-01-26T06:30:56.329Z,86.37
2023-01-26T06:31:56.427Z,81.53
2023-01-26T06:32:59.605Z,81.37
2023-01-26T06:33:56.852Z,81.69
2023-01-26T06:34:57.062Z,79.60
2023-01-26T06:35:58.398Z,88.46
2023-01-26T06:36:57.413Z,81.86
2023-01-26T06:37:58.421Z,85.08
2023-01-26T06:39:00.696Z,88.78
2023-01-26T06:39:59.439Z,87.17
2023-01-26T06:40:58.043Z,81.37
2023-01-26T06:41:58.464Z,81.53
2023-01-26T06:42:58.406Z,84.43
2023-01-26T06:43:58.564Z,80.41
2023-01-26T06:44:58.720Z,79.44
2023-01-26T06:45:58.945Z,80.73
2023-01-26T06:47:00.400Z,86.21
2023-01-26T06:47:59.273Z,79.60
2023-01-26T06:48:59.940Z,87.66
2023-01-26T06:49:59.964Z,84.59
2023-01-26T06:50:59.733Z,88.46
2023-01-26T06:51:59.908Z,77.67
2023-01-26T06:53:00.960Z,92.49
2023-01-26T06:54:00.902Z,81.86
2023-01-26T06:55:00.418Z,84.76
2023-01-26T06:56:01.449Z,83.63
2023-01-26T06:57:00.968Z,84.27
2023-01-26T06:58:01.011Z,80.57
2023-01-26T06:59:01.203Z,88.14
2023-01-26T07:00:01.403Z,81.53
2023-01-26T07:01:01.622Z,81.37
2023-01-26T07:02:02.451Z,83.79
2023-01-26T07:03:02.009Z,100.22
2023-01-26T07:04:02.902Z,81.21
2023-01-26T07:05:02.334Z,81.37
2023-01-26T07:06:02.509Z,87.01
2023-01-26T07:07:03.399Z,81.53
2023-01-26T07:08:02.954Z,84.92
2023-01-26T07:09:03.952Z,78.47
2023-01-26T07:10:03.943Z,82.82
2023-01-26T07:11:03.257Z,80.57
2023-01-26T07:12:03.463Z,78.96
2023-01-26T07:13:03.679Z,85.24
2023-01-26T07:14:04.773Z,82.02
2023-01-26T07:15:04.903Z,82.34
2023-01-26T07:16:04.249Z,82.98
2023-01-26T07:17:04.956Z,83.31
2023-01-26T07:18:04.967Z,86.04
2023-01-26T07:19:04.801Z,88.30
2023-01-26T07:20:05.009Z,79.28
2023-01-26T07:21:05.220Z,84.27
2023-01-26T07:22:06.906Z,83.31
2023-01-26T07:23:05.547Z,80.24
2023-01-26T07:24:05.818Z,81.37
2023-01-26T07:25:05.946Z,83.63
2023-01-26T07:26:07.419Z,83.79
2023-01-26T07:27:06.901Z,78.31
2023-01-26T07:28:06.442Z,80.57
2023-01-26T07:29:06.625Z,80.89
2023-01-26T07:30:07.447Z,82.50
2023-01-26T07:31:07.081Z,83.63
2023-01-26T07:32:07.209Z,81.37
2023-01-26T07:33:07.465Z,83.31
2023-01-26T07:34:07.958Z,84.43
2023-01-26T07:35:07.744Z,79.44
2023-01-26T07:36:08.934Z,84.11
2023-01-26T07:37:08.071Z,83.14
2023-01-26T07:38:08.251Z,89.59
2023-01-26T07:39:08.842Z,84.27
2023-01-26T07:40:10.872Z,80.57
2023-01-26T07:41:08.771Z,82.18
2023-01-26T07:42:09.463Z,85.72
2023-01-26T07:43:09.134Z,84.27
2023-01-26T07:44:09.488Z,82.18
2023-01-26T07:45:09.453Z,82.34
2023-01-26T07:46:09.641Z,83.14
2023-01-26T07:47:09.823Z,81.21
2023-01-26T07:48:11.409Z,82.02
2023-01-26T07:49:10.958Z,82.18
2023-01-26T07:50:10.610Z,84.43
2023-01-26T07:51:11.455Z,83.31
2023-01-26T07:52:10.717Z,86.37
2023-01-26T07:53:10.873Z,81.05
2023-01-26T07:54:11.007Z,82.34
2023-01-26T07:55:11.214Z,86.69
2023-01-26T07:56:11.387Z,80.89
2023-01-26T07:57:12.451Z,81.05
2023-01-26T07:58:12.915Z,81.37
2023-01-26T07:59:12.420Z,82.82
2023-01-26T08:00:13.643Z,85.72
2023-01-26T08:01:12.272Z,82.98
2023-01-26T08:02:12.459Z,81.05
2023-01-26T08:03:12.614Z,82.98
2023-01-26T08:04:12.801Z,83.63
2023-01-26T08:05:13.014Z,81.05
2023-01-26T08:06:13.936Z,82.82
2023-01-26T08:07:13.281Z,88.46
2023-01-26T08:08:13.438Z,85.24
2023-01-26T08:09:13.645Z,79.76
2023-01-26T08:10:13.994Z,83.63
2023-01-26T08:11:14.064Z,83.14
2023-01-26T08:12:14.235Z,83.14
2023-01-26T08:13:15.626Z,86.85
2023-01-26T08:14:14.520Z,80.41
2023-01-26T08:15:14.696Z,87.33
2023-01-26T08:16:14.987Z,84.76
2023-01-26T08:17:36.944Z,82.18
2023-01-26T08:18:15.934Z,80.89
2023-01-26T08:19:15.989Z,84.11
2023-01-26T08:20:17.415Z,84.59
2023-01-26T08:21:16.425Z,79.44
2023-01-26T08:22:15.814Z,82.34
2023-01-26T08:23:18.417Z,85.56
2023-01-26T08:24:16.948Z,81.21
2023-01-26T08:25:16.956Z,81.37
2023-01-26T08:26:17.496Z,88.30
2023-01-26T08:27:17.463Z,83.95
2023-01-26T08:28:16.974Z,81.53
2023-01-26T08:29:17.959Z,81.53
2023-01-26T08:30:17.308Z,81.05
2023-01-26T08:31:17.577Z,80.08
2023-01-26T08:32:17.629Z,81.37
2023-01-26T08:33:18.454Z,79.28
2023-01-26T08:34:17.986Z,82.98
2023-01-26T08:35:18.971Z,80.89
2023-01-26T08:36:19.694Z,85.56
2023-01-26T08:37:19.413Z,85.72
2023-01-26T08:38:18.655Z,80.41
2023-01-26T08:39:19.417Z,85.24
2023-01-26T08:40:20.419Z,81.37
2023-01-26T08:41:20.432Z,84.27
2023-01-26T08:42:20.738Z,84.92
2023-01-26T08:43:19.489Z,83.63
2023-01-26T08:44:19.647Z,80.73
2023-01-26T08:45:19.814Z,84.11
2023-01-26T08:46:21.415Z,80.89
2023-01-26T08:47:20.185Z,79.28
2023-01-26T08:48:20.432Z,82.66
2023-01-26T08:49:20.635Z,81.53
2023-01-26T08:50:20.829Z,82.34
2023-01-26T08:51:22.849Z,82.18
2023-01-26T08:52:21.245Z,81.86
2023-01-26T08:53:22.354Z,83.79
2023-01-26T08:54:22.489Z,83.63
2023-01-26T08:55:21.878Z,82.34
2023-01-26T08:56:23.065Z,82.34
2023-01-26T08:57:23.310Z,80.24
2023-01-26T08:58:23.284Z,82.50
2023-01-26T08:59:22.688Z,82.98
2023-01-26T09:00:22.861Z,81.37
2023-01-26T09:01:23.100Z,82.02
2023-01-26T09:02:24.074Z,82.66
2023-01-26T09:03:23.970Z,84.11
2023-01-26T09:04:23.674Z,85.08
2023-01-26T09:05:24.466Z,80.73
2023-01-26T09:06:24.947Z,85.08
2023-01-26T09:07:25.784Z,80.41
2023-01-26T09:08:24.355Z,81.69
2023-01-26T09:09:24.546Z,82.34
2023-01-26T09:10:24.726Z,88.14
2023-01-26T09:11:24.982Z,82.34
2023-01-26T09:12:25.172Z,81.69
2023-01-26T09:13:25.357Z,84.11
2023-01-26T09:14:28.424Z,81.53
2023-01-26T09:15:26.420Z,83.31
2023-01-26T09:16:26.034Z,83.63
2023-01-26T09:17:26.097Z,81.53
2023-01-26T09:18:26.266Z,84.27
2023-01-26T09:19:27.909Z,86.21
2023-01-26T09:20:27.473Z,86.21
2023-01-26T09:21:26.741Z,103.29
2023-01-26T09:22:26.914Z,82.82
2023-01-26T09:23:27.110Z,82.02
2023-01-26T09:24:27.330Z,84.59
2023-01-26T09:25:27.406Z,82.34
2023-01-26T09:26:27.609Z,79.76
2023-01-26T09:27:27.778Z,82.66
2023-01-26T09:28:27.984Z,83.31
2023-01-26T09:29:28.185Z,82.98
2023-01-26T09:30:28.671Z,82.66
2023-01-26T09:31:28.626Z,83.14
2023-01-26T09:32:28.712Z,84.76
2023-01-26T09:33:29.420Z,84.27
2023-01-26T09:34:29.079Z,85.56
2023-01-26T09:35:29.968Z,84.11
2023-01-26T09:36:29.419Z,81.69
2023-01-26T09:37:29.626Z,85.24
2023-01-26T09:38:30.466Z,80.57
2023-01-26T09:39:30.007Z,84.27
2023-01-26T09:40:30.155Z,81.37
2023-01-26T09:41:30.924Z,83.95
2023-01-26T09:42:30.566Z,81.37
2023-01-26T09:43:31.430Z,80.89
2023-01-26T09:44:30.941Z,89.59
2023-01-26T09:45:31.130Z,81.69
2023-01-26T09:46:31.319Z,82.34
2023-01-26T09:47:31.506Z,80.89
2023-01-26T09:48:31.667Z,83.47
2023-01-26T09:49:31.802Z,83.63
2023-01-26T09:50:32.063Z,82.98
2023-01-26T09:51:32.934Z,81.05
2023-01-26T09:52:32.362Z,82.18
2023-01-26T09:53:33.439Z,83.31
2023-01-26T09:54:32.659Z,80.57
2023-01-26T09:55:32.821Z,81.86
2023-01-26T09:56:33.797Z,84.27
2023-01-26T09:57:33.935Z,80.73
2023-01-26T09:58:33.949Z,84.11
2023-01-26T09:59:34.957Z,83.47
2023-01-26T10:00:33.703Z,85.24
2023-01-26T10:01:34.072Z,83.63
2023-01-26T10:02:34.001Z,82.82
2023-01-26T10:03:34.180Z,84.43
2023-01-26T10:04:35.936Z,85.40
2023-01-26T10:05:35.484Z,80.89
2023-01-26T10:06:34.898Z,80.89
2023-01-26T10:07:35.876Z,84.92
2023-01-26T10:08:35.974Z,83.79
2023-01-26T10:09:35.338Z,87.17
2023-01-26T10:10:35.465Z,79.28
2023-01-26T10:11:35.625Z,81.53
2023-01-26T10:12:35.768Z,80.24
2023-01-26T10:13:36.440Z,80.24
2023-01-26T10:14:36.500Z,84.59
2023-01-26T10:15:36.296Z,84.11
2023-01-26T10:16:36.958Z,83.47
2023-01-26T10:17:37.437Z,84.11
2023-01-26T10:18:36.796Z,82.18
2023-01-26T10:19:37.443Z,83.79
2023-01-26T10:20:37.994Z,81.53
2023-01-26T10:21:38.454Z,84.92
2023-01-26T10:22:37.444Z,81.53
2023-01-26T10:23:38.474Z,83.47
2023-01-26T10:24:37.848Z,81.05
2023-01-26T10:25:38.000Z,81.37
2023-01-26T10:26:38.188Z,82.02
2023-01-26T10:27:38.938Z,81.37
2023-01-26T10:28:38.599Z,84.43
2023-01-26T10:29:38.735Z,84.76
2023-01-26T10:30:38.989Z,79.44
2023-01-26T10:31:39.980Z,83.14
2023-01-26T10:32:39.973Z,85.24
2023-01-26T10:33:40.298Z,81.53
2023-01-26T10:34:39.583Z,82.66
2023-01-26T10:35:41.948Z,83.79
2023-01-26T10:36:39.961Z,82.82
2023-01-26T10:37:40.940Z,82.50
2023-01-26T10:38:40.935Z,81.69
2023-01-26T10:39:40.468Z,83.63
2023-01-26T10:40:41.505Z,80.24
2023-01-26T10:41:40.842Z,80.73
2023-01-26T10:42:41.050Z,80.73
2023-01-26T10:43:41.260Z,78.96
2023-01-26T10:44:41.429Z,86.04
2023-01-26T10:45:41.593Z,81.53
2023-01-26T10:46:41.803Z,82.02
2023-01-26T10:47:42.017Z,79.92
2023-01-26T10:48:42.213Z,83.31
2023-01-26T10:49:43.444Z,87.50
2023-01-26T10:50:43.541Z,82.98
2023-01-26T10:51:42.813Z,81.69
2023-01-26T10:52:43.019Z,82.34
2023-01-26T10:53:43.219Z,84.11
2023-01-26T10:54:43.435Z,83.14
2023-01-26T10:55:43.635Z,82.82
2023-01-26T10:56:43.848Z,81.21
2023-01-26T10:57:44.028Z,83.79
2023-01-26T10:58:45.953Z,84.27
2023-01-26T10:59:44.978Z,80.57
2023-01-26T11:00:44.536Z,85.40
2023-01-26T11:01:44.728Z,84.92
2023-01-26T11:02:44.968Z,82.66
2023-01-26T11:03:45.164Z,82.34
2023-01-26T11:04:45.359Z,83.79
2023-01-26T11:05:45.541Z,87.50
2023-01-26T11:06:46.447Z,87.82
2023-01-26T11:07:46.437Z,83.14
2023-01-26T11:08:46.989Z,81.86
2023-01-26T11:09:46.172Z,82.34
2023-01-26T11:10:46.391Z,83.31
2023-01-26T11:11:46.607Z,83.63
2023-01-26T11:12:46.810Z,84.43
2023-01-26T11:13:47.985Z,82.18
2023-01-26T11:14:47.166Z,80.57
2023-01-26T11:15:47.390Z,82.82
2023-01-26T11:16:47.601Z,84.76
2023-01-26T11:17:47.791Z,83.47
2023-01-26T11:18:49.946Z,82.98
2023-01-26T11:19:48.225Z,86.69
2023-01-26T11:20:48.452Z,81.53
2023-01-26T11:21:48.671Z,85.88
2023-01-26T11:22:48.843Z,82.02
2023-01-26T11:23:49.993Z,82.98
2023-01-26T11:24:49.180Z,83.95
2023-01-26T11:25:49.376Z,83.31
2023-01-26T11:26:49.555Z,82.18
2023-01-26T11:27:49.700Z,84.92
2023-01-26T11:28:49.867Z,83.79
2023-01-26T11:29:50.035Z,82.34
2023-01-26T11:30:50.220Z,84.11
2023-01-26T11:31:50.481Z,88.30
2023-01-26T11:32:50.609Z,83.79
2023-01-26T11:33:50.684Z,81.69
2023-01-26T11:34:50.835Z,83.47
2023-01-26T11:35:51.014Z,83.14
2023-01-26T11:36:51.211Z,81.53
2023-01-26T11:37:53.910Z,83.63
2023-01-26T11:38:52.622Z,85.08
2023-01-26T11:39:52.487Z,80.57
2023-01-26T11:40:51.998Z,83.14
2023-01-26T11:41:52.950Z,80.24
2023-01-26T11:42:52.365Z,81.53
2023-01-26T11:43:52.552Z,81.21
2023-01-26T11:44:54.321Z,84.92
2023-01-26T11:45:53.017Z,83.14
2023-01-26T11:46:53.135Z,87.33
2023-01-26T11:47:53.301Z,83.31
2023-01-26T11:48:53.474Z,85.72
2023-01-26T11:49:54.450Z,87.50
2023-01-26T11:50:55.462Z,80.73
2023-01-26T11:51:53.989Z,87.33
2023-01-26T11:52:54.217Z,80.89
2023-01-26T11:53:54.990Z,83.31
2023-01-26T11:54:54.519Z,81.53
2023-01-26T11:55:54.709Z,80.41
2023-01-26T11:56:54.918Z,83.31
2023-01-26T11:57:55.108Z,82.18
2023-01-26T11:58:55.297Z,83.14
2023-01-26T11:59:55.508Z,83.95
2023-01-26T12:00:55.729Z,82.50
2023-01-26T12:01:56.027Z,81.37
2023-01-26T12:02:56.180Z,82.82
2023-01-26T12:03:56.421Z,82.02
2023-01-26T12:04:56.511Z,81.86
2023-01-26T12:05:57.518Z,85.72
2023-01-26T12:06:56.986Z,87.17
2023-01-26T12:07:57.185Z,83.47
2023-01-26T12:08:57.398Z,83.79
2023-01-26T12:09:58.495Z,82.02
2023-01-26T12:10:59.315Z,81.86
2023-01-26T12:11:58.001Z,80.24
2023-01-26T12:12:59.954Z,82.82
2023-01-26T12:13:58.368Z,81.86
2023-01-26T12:14:59.316Z,82.98
2023-01-26T12:15:59.493Z,92.65
2023-01-26T12:17:15.682Z,82.66
2023-01-26T12:18:01.059Z,83.63
2023-01-26T12:19:10.781Z,84.11
2023-01-26T12:20:02.629Z,81.69
2023-01-26T12:20:59.476Z,81.53
2023-01-26T12:22:00.513Z,82.34
2023-01-26T12:22:59.792Z,81.86
2023-01-26T12:23:59.994Z,83.63
2023-01-26T12:25:21.003Z,84.92
2023-01-26T12:26:02.331Z,84.76
2023-01-26T12:27:00.457Z,82.02
2023-01-26T12:28:00.606Z,80.41
2023-01-26T12:29:00.754Z,84.76
2023-01-26T12:30:01.010Z,83.47
2023-01-26T12:31:02.592Z,83.95
2023-01-26T12:32:01.407Z,80.73
2023-01-26T12:33:02.959Z,81.21
2023-01-26T12:34:02.465Z,83.63
2023-01-26T12:35:01.884Z,85.08
2023-01-26T12:36:04.461Z,82.34
2023-01-26T12:37:02.962Z,82.66
2023-01-26T12:38:17.285Z,86.21
2023-01-26T12:39:04.570Z,85.72
2023-01-26T12:40:03.493Z,82.98
2023-01-26T12:41:03.965Z,84.11
2023-01-26T12:42:03.121Z,84.76
2023-01-26T12:43:03.318Z,83.14
2023-01-26T12:44:04.465Z,82.66
2023-01-26T12:45:03.638Z,82.02
2023-01-26T12:46:03.817Z,84.59
2023-01-26T12:47:04.957Z,85.88
2023-01-26T12:48:04.963Z,83.31
2023-01-26T12:49:05.468Z,82.50
2023-01-26T12:50:04.557Z,87.17
2023-01-26T12:51:04.662Z,82.50
2023-01-26T12:52:04.813Z,82.82
2023-01-26T12:53:04.988Z,84.76
2023-01-26T12:54:05.999Z,83.14
2023-01-26T12:55:05.305Z,83.14